Time;durP1;ratioP1;P1;durP2;ratioP2;P2;SDS_P1;SDS_P2;PMS_P1;PMS_P2;Temp;Humidity;BMP_temperature;BMP_pressure;BME280_temperature;BME280_humidity;BME280_pressure;Samples;Min_cycle;Max_cycle;Signal;HPM_P1;HPM_P2
2022/07/18 00:00:17;;;;;;;3.65;2.75;;;15.20;99.90;;;;;;5051690;28;20115;-64
2022/07/18 00:02:44;;;;;;;5.93;2.90;;;15.20;99.90;;;;;;5051040;28;20048;-64
2022/07/18 00:05:10;;;;;;;3.95;2.88;;;15.20;99.90;;;;;;5054183;28;20056;-64
2022/07/18 00:07:37;;;;;;;4.90;2.65;;;15.10;99.90;;;;;;5054057;28;20052;-65
2022/07/18 00:10:05;;;;;;;4.30;2.85;;;15.20;99.90;;;;;;5049288;28;20036;-63
2022/07/18 00:12:32;;;;;;;4.45;2.70;;;15.20;99.90;;;;;;5053667;28;20041;-63
2022/07/18 00:14:59;;;;;;;4.97;2.72;;;15.20;99.90;;;;;;5036099;28;20033;-64
2022/07/18 00:17:25;;;;;;;6.88;3.10;;;15.20;99.90;;;;;;5048603;28;20045;-63
2022/07/18 00:19:52;;;;;;;4.97;2.80;;;15.20;99.90;;;;;;5053614;28;20045;-64
2022/07/18 00:22:19;;;;;;;3.05;2.45;;;15.20;99.90;;;;;;5053637;28;20049;-64
2022/07/18 00:24:46;;;;;;;4.75;2.28;;;15.20;99.90;;;;;;5053676;28;20060;-63
2022/07/18 00:27:13;;;;;;;3.90;2.70;;;15.20;99.90;;;;;;5049973;28;20095;-63
2022/07/18 00:29:39;;;;;;;6.72;2.78;;;15.20;99.90;;;;;;5035676;28;20493;-63
2022/07/18 00:32:08;;;;;;;7.82;3.05;;;15.20;99.90;;;;;;5053267;28;20064;-63
2022/07/18 00:34:35;;;;;;;3.05;2.42;;;15.20;99.90;;;;;;5047659;28;20049;-63
2022/07/18 00:37:02;;;;;;;4.75;2.80;;;15.20;99.90;;;;;;5053394;28;20048;-63
2022/07/18 00:39:29;;;;;;;4.22;2.70;;;15.10;99.90;;;;;;5053254;28;20551;-63
2022/07/18 00:41:56;;;;;;;5.80;2.80;;;15.10;99.90;;;;;;5050805;28;20040;-63
2022/07/18 00:44:25;;;;;;;4.50;3.17;;;15.10;99.90;;;;;;5047665;28;20045;-63
2022/07/18 00:46:54;;;;;;;3.90;2.88;;;15.10;99.90;;;;;;5053237;28;20067;-63
2022/07/18 00:49:21;;;;;;;5.88;3.08;;;15.10;99.90;;;;;;5052912;28;20045;-64
2022/07/18 00:51:47;;;;;;;3.17;2.78;;;15.10;99.90;;;;;;5050293;28;20052;-63
2022/07/18 00:54:14;;;;;;;4.28;3.30;;;15.00;99.90;;;;;;5053019;28;20383;-63
2022/07/18 00:56:42;;;;;;;3.60;2.80;;;15.10;99.90;;;;;;5053110;28;20056;-63
2022/07/18 00:59:10;;;;;;;3.58;2.45;;;15.10;99.90;;;;;;5052628;28;20068;-63
2022/07/18 01:01:45;;;;;;;4.72;2.60;;;15.10;99.90;;;;;;5048856;28;20049;-64
2022/07/18 01:04:20;;;;;;;3.05;2.63;;;15.10;99.90;;;;;;5033047;28;20041;-63
2022/07/18 01:06:49;;;;;;;4.10;2.47;;;15.00;99.90;;;;;;5033046;28;20044;-63
2022/07/18 01:09:17;;;;;;;4.78;2.80;;;15.00;99.90;;;;;;5037796;28;20053;-63
2022/07/18 01:11:45;;;;;;;5.43;3.03;;;14.90;99.90;;;;;;5052500;28;20467;-63
2022/07/18 01:14:13;;;;;;;3.85;2.65;;;14.90;99.90;;;;;;5052699;28;20052;-63
2022/07/18 01:16:40;;;;;;;12.25;3.50;;;14.90;99.90;;;;;;5052680;28;20072;-63
2022/07/18 01:19:07;;;;;;;4.80;3.50;;;14.80;99.90;;;;;;5044556;28;20045;-63
2022/07/18 01:21:34;;;;;;;5.70;3.40;;;14.70;99.90;;;;;;5052027;28;20045;-64
2022/07/18 01:24:00;;;;;;;4.18;3.15;;;14.40;99.90;;;;;;5052553;28;20481;-63
2022/07/18 01:26:27;;;;;;;6.22;3.30;;;14.20;99.90;;;;;;5052094;28;20588;-63
2022/07/18 01:28:54;;;;;;;5.07;3.40;;;14.20;99.90;;;;;;5050891;28;20044;-63
2022/07/18 01:31:21;;;;;;;4.40;3.25;;;14.30;99.90;;;;;;5052084;28;20798;-63
2022/07/18 01:33:48;;;;;;;4.55;3.13;;;14.40;99.90;;;;;;5052156;28;20539;-63
2022/07/18 01:36:15;;;;;;;4.30;3.00;;;14.40;99.90;;;;;;5049510;28;20049;-63
2022/07/18 01:38:41;;;;;;;6.00;3.20;;;14.50;99.90;;;;;;5052448;28;20037;-63
2022/07/18 01:41:08;;;;;;;5.18;3.28;;;14.60;99.90;;;;;;5051748;28;20045;-63
2022/07/18 01:43:40;;;;;;;3.70;2.70;;;14.60;99.90;;;;;;5045651;28;20045;-63
2022/07/18 01:46:09;;;;;;;2.85;2.55;;;14.60;99.90;;;;;;5044247;28;20044;-63
2022/07/18 01:48:40;;;;;;;3.88;2.95;;;14.60;99.90;;;;;;5052027;28;20391;-63
2022/07/18 01:51:09;;;;;;;3.85;3.20;;;14.50;99.90;;;;;;5051166;28;20052;-64
2022/07/18 01:53:41;;;;;;;5.38;2.83;;;14.50;99.90;;;;;;5044182;28;20060;-63
2022/07/18 01:56:11;;;;;;;5.93;3.47;;;14.50;99.90;;;;;;5044188;28;20052;-63
2022/07/18 01:58:38;;;;;;;3.63;3.20;;;14.40;99.90;;;;;;5051980;28;20048;-63
2022/07/18 02:01:05;;;;;;;4.70;3.30;;;14.40;99.90;;;;;;5049270;28;20049;-63
2022/07/18 02:03:32;;;;;;;4.75;3.35;;;14.20;99.90;;;;;;5051660;28;20124;-63
2022/07/18 02:05:59;;;;;;;5.43;3.17;;;14.20;99.90;;;;;;5051794;28;20037;-63
2022/07/18 02:08:25;;;;;;;5.50;3.60;;;14.10;99.90;;;;;;5048187;28;20037;-63
2022/07/18 02:10:52;;;;;;;5.43;3.08;;;14.10;99.90;;;;;;5049467;28;20116;-63
2022/07/18 02:13:20;;;;;;;5.53;3.05;;;14.20;99.90;;;;;;5051577;28;20441;-63
2022/07/18 02:15:47;;;;;;;3.50;3.13;;;14.20;99.90;;;;;;5050391;28;20554;-63
2022/07/18 02:18:14;;;;;;;3.60;3.13;;;14.20;99.90;;;;;;5044594;28;20072;-63
2022/07/18 02:20:41;;;;;;;4.70;3.50;;;14.20;99.90;;;;;;5051146;28;20086;-63
2022/07/18 02:23:08;;;;;;;4.38;3.33;;;14.20;99.90;;;;;;5051576;28;20040;-63
2022/07/18 02:25:35;;;;;;;4.38;2.85;;;14.20;99.90;;;;;;5048003;28;20117;-63
2022/07/18 02:28:02;;;;;;;;;;;14.20;99.90;;;;;;5051845;28;20041;-63
2022/07/18 02:30:29;;;;;;;4.00;3.15;;;14.20;99.90;;;;;;5051486;28;20304;-63
2022/07/18 02:32:56;;;;;;;2.85;2.65;;;14.20;99.90;;;;;;5050768;28;20044;-63
2022/07/18 02:35:22;;;;;;;6.40;3.03;;;14.20;99.90;;;;;;5051015;28;20048;-63
2022/07/18 02:37:52;;;;;;;4.95;3.35;;;14.20;99.90;;;;;;5051313;28;20045;-63
2022/07/18 02:40:19;;;;;;;4.05;3.45;;;14.10;99.90;;;;;;5050879;28;20059;-63
2022/07/18 02:42:45;;;;;;;7.93;3.70;;;14.10;99.90;;;;;;5050408;28;20611;-63
2022/07/18 02:45:13;;;;;;;6.53;5.10;;;14.00;99.90;;;;;;5051413;28;20037;-63
2022/07/18 02:47:40;;;;;;;8.15;4.18;;;13.80;99.90;;;;;;5051307;28;20405;-63
2022/07/18 02:50:07;;;;;;;4.97;3.83;;;13.60;99.90;;;;;;5051087;28;20478;-63
2022/07/18 02:52:34;;;;;;;;;;;13.50;99.90;;;;;;5047458;28;20045;-63
2022/07/18 02:55:01;;;;;;;4.90;3.78;;;13.40;99.90;;;;;;5051018;28;19928;-63
2022/07/18 02:57:28;;;;;;;6.55;3.50;;;13.40;99.90;;;;;;5051291;28;20059;-64
2022/07/18 02:59:55;;;;;;;7.72;3.67;;;13.30;99.90;;;;;;5042338;28;20046;-63
2022/07/18 03:02:22;;;;;;;6.80;4.13;;;13.30;99.90;;;;;;5050950;28;20044;-63
2022/07/18 03:04:48;;;;;;;4.63;3.67;;;13.30;99.90;;;;;;5054793;28;20048;-63
2022/07/18 03:07:15;;;;;;;6.35;3.80;;;13.30;99.90;;;;;;5054285;28;20040;-63
2022/07/18 03:09:42;;;;;;;5.00;3.35;;;13.40;99.90;;;;;;5051760;28;20048;-63
2022/07/18 03:12:09;;;;;;;5.68;3.58;;;13.40;99.90;;;;;;5054778;28;20045;-63
2022/07/18 03:14:36;;;;;;;6.32;3.40;;;13.50;99.90;;;;;;5054960;28;20049;-63
2022/07/18 03:17:03;;;;;;;3.80;3.22;;;13.50;99.90;;;;;;5054006;28;20045;-63
2022/07/18 03:19:30;;;;;;;4.65;3.33;;;13.50;99.90;;;;;;5050190;28;20048;-63
2022/07/18 03:21:57;;;;;;;6.88;3.60;;;13.40;99.90;;;;;;5054416;28;20079;-63
2022/07/18 03:24:23;;;;;;;5.50;3.60;;;13.40;99.90;;;;;;5054781;28;20037;-63
2022/07/18 03:26:50;;;;;;;5.95;3.55;;;13.40;99.90;;;;;;5046816;28;20046;-63
2022/07/18 03:29:17;;;;;;;4.65;3.25;;;13.40;99.90;;;;;;5054649;28;20488;-63
2022/07/18 03:31:44;;;;;;;3.92;3.00;;;13.30;99.90;;;;;;5036677;28;20053;-63
2022/07/18 03:34:11;;;;;;;4.47;3.40;;;13.30;99.90;;;;;;5054620;28;20059;-63
2022/07/18 03:36:38;;;;;;;4.05;3.25;;;13.30;99.90;;;;;;5046344;28;20073;-63
2022/07/18 03:39:06;;;;;;;4.28;3.50;;;13.20;99.90;;;;;;5054539;28;20107;-63
2022/07/18 03:41:33;;;;;;;5.82;3.35;;;13.30;99.90;;;;;;5054064;28;20044;-63
2022/07/18 03:44:01;;;;;;;3.95;3.35;;;13.20;99.90;;;;;;5052385;28;20056;-63
2022/07/18 03:46:27;;;;;;;8.23;3.78;;;13.30;99.90;;;;;;5054331;28;20049;-63
2022/07/18 03:48:54;;;;;;;4.55;3.85;;;13.20;99.90;;;;;;5054447;28;20048;-63
2022/07/18 03:51:21;;;;;;;6.93;3.58;;;13.20;99.90;;;;;;5053862;28;20052;-63
2022/07/18 03:53:48;;;;;;;5.03;3.85;;;13.20;99.90;;;;;;5053270;28;20056;-63
2022/07/18 03:56:15;;;;;;;5.65;3.47;;;13.20;99.90;;;;;;5036554;28;20045;-63
2022/07/18 03:58:43;;;;;;;;;;;13.10;99.90;;;;;;5054696;28;20045;-63
2022/07/18 04:01:09;;;;;;;7.10;4.03;;;13.10;99.90;;;;;;5052926;28;19921;-63
2022/07/18 04:03:36;;;;;;;5.53;3.20;;;13.10;99.90;;;;;;5053730;28;20045;-63
2022/07/18 04:06:03;;;;;;;6.55;4.13;;;13.10;99.90;;;;;;5053704;28;20033;-63
2022/07/18 04:08:30;;;;;;;5.57;3.78;;;13.10;99.90;;;;;;5053327;28;20044;-63
2022/07/18 04:10:57;;;;;;;6.90;3.78;;;13.10;99.90;;;;;;5055405;28;20052;-63
2022/07/18 04:13:24;;;;;;;6.07;3.33;;;13.00;99.90;;;;;;5053576;28;20041;-63
2022/07/18 04:15:50;;;;;;;6.03;3.67;;;13.10;99.90;;;;;;5056427;28;20344;-63
2022/07/18 04:18:17;;;;;;;4.50;3.42;;;13.10;99.90;;;;;;5059060;28;20448;-64
2022/07/18 04:20:44;;;;;;;8.03;3.90;;;13.10;99.90;;;;;;5055000;28;20044;-63
2022/07/18 04:23:11;;;;;;;6.00;4.00;;;13.20;99.90;;;;;;5061209;28;20302;-63
2022/07/18 04:25:42;;;;;;;5.97;3.90;;;13.30;99.90;;;;;;5059107;28;20049;-63
2022/07/18 04:28:11;;;;;;;5.28;3.42;;;13.30;99.90;;;;;;5065351;28;20403;-63
2022/07/18 04:30:40;;;;;;;4.68;3.80;;;13.40;99.90;;;;;;5062844;28;20041;-63
2022/07/18 04:33:08;;;;;;;6.38;3.80;;;13.40;99.90;;;;;;5059752;28;20044;-63
2022/07/18 04:35:38;;;;;;;5.93;4.20;;;13.50;99.90;;;;;;5057621;28;20045;-63
2022/07/18 04:38:07;;;;;;;5.15;4.20;;;13.50;99.90;;;;;;5060962;28;20041;-63
2022/07/18 04:40:34;;;;;;;4.90;3.72;;;13.50;99.90;;;;;;5061582;28;20036;-63
2022/07/18 04:43:01;;;;;;;9.63;4.32;;;13.50;99.90;;;;;;5060273;28;20032;-63
2022/07/18 04:45:28;;;;;;;6.78;4.10;;;13.50;99.90;;;;;;5055263;28;20041;-63
2022/07/18 04:47:55;;;;;;;5.72;4.50;;;13.60;99.90;;;;;;5053154;28;20041;-63
2022/07/18 04:50:23;;;;;;;5.38;4.20;;;13.60;99.90;;;;;;5046436;28;20041;-63
2022/07/18 04:52:51;;;;;;;6.40;4.53;;;13.70;99.90;;;;;;5050632;28;20048;-63
2022/07/18 04:55:21;;;;;;;5.85;4.82;;;13.80;99.90;;;;;;5053141;28;20057;-63
2022/07/18 04:57:49;;;;;;;7.78;5.50;;;13.90;99.90;;;;;;5053181;28;20460;-64
2022/07/18 05:00:21;;;;;;;7.50;5.35;;;13.90;99.90;;;;;;5047310;28;20052;-63
2022/07/18 05:02:50;;;;;;;11.95;6.00;;;14.00;99.90;;;;;;5052638;28;20045;-63
2022/07/18 05:05:19;;;;;;;7.55;5.70;;;14.00;99.90;;;;;;5052362;28;20041;-63
2022/07/18 05:07:47;;;;;;;7.15;5.93;;;14.10;99.90;;;;;;5045513;28;20048;-64
2022/07/18 05:10:17;;;;;;;9.32;6.30;;;14.20;99.90;;;;;;5060002;28;20048;-62
2022/07/18 05:12:47;;;;;;;7.75;6.18;;;14.50;99.90;;;;;;5062721;28;20056;-63
2022/07/18 05:15:15;;;;;;;10.23;6.47;;;14.90;99.90;;;;;;5052784;28;20033;-63
2022/07/18 05:17:42;;;;;;;10.38;6.97;;;14.90;99.90;;;;;;5049497;28;20488;-63
2022/07/18 05:20:12;;;;;;;9.80;6.40;;;14.80;99.90;;;;;;5052219;28;20053;-63
2022/07/18 05:22:39;;;;;;;10.75;6.43;;;14.80;99.90;;;;;;5052509;28;20051;-63
2022/07/18 05:25:07;;;;;;;6.40;5.78;;;14.80;99.90;;;;;;5045910;28;20433;-63
2022/07/18 05:27:34;;;;;;;9.55;6.07;;;14.80;99.90;;;;;;5051833;28;20037;-63
2022/07/18 05:30:01;;;;;;;9.30;6.40;;;14.90;99.90;;;;;;5052027;28;20072;-63
2022/07/18 05:32:28;;;;;;;7.82;6.43;;;15.00;99.90;;;;;;5046047;28;20055;-63
2022/07/18 05:34:55;;;;;;;9.93;6.78;;;15.00;99.90;;;;;;5052120;28;20053;-63
2022/07/18 05:37:22;;;;;;;11.93;7.50;;;15.00;99.90;;;;;;5068728;22;20090;-60
2022/07/18 05:40:03;;;;;;;9.55;6.40;;;15.10;99.90;;;;;;5049528;28;20053;-60
2022/07/18 05:43:19;;;;;;;8.32;6.05;;;15.20;99.90;;;;;;5032991;28;20090;-59
2022/07/18 05:45:45;;;;;;;10.02;6.47;;;15.20;99.90;;;;;;5043463;28;20056;-60
2022/07/18 05:48:12;;;;;;;10.02;6.97;;;15.30;99.90;;;;;;5050838;28;20044;-60
2022/07/18 05:50:39;;;;;;;14.43;7.05;;;15.30;99.90;;;;;;5050150;28;20401;-59
2022/07/18 05:53:06;;;;;;;10.73;6.40;;;15.40;99.90;;;;;;5051598;28;20099;-60
2022/07/18 05:55:33;;;;;;;10.07;6.78;;;15.40;99.90;;;;;;5051390;28;20456;-60
2022/07/18 05:57:59;;;;;;;8.70;5.90;;;15.40;99.90;;;;;;5051516;28;20049;-60
2022/07/18 06:00:26;;;;;;;7.40;5.85;;;15.50;99.90;;;;;;5051296;28;20036;-60
2022/07/18 06:02:53;;;;;;;11.88;6.03;;;15.50;99.90;;;;;;5051121;28;20037;-60
2022/07/18 06:05:20;;;;;;;9.38;5.82;;;15.60;99.90;;;;;;5051580;28;20040;-60
2022/07/18 06:07:51;;;;;;;7.05;5.45;;;15.60;99.90;;;;;;5051619;28;20047;-59
2022/07/18 06:10:18;;;;;;;7.05;5.60;;;15.70;99.90;;;;;;5051336;28;20052;-60
2022/07/18 06:12:45;;;;;;;6.38;5.28;;;15.80;99.90;;;;;;5050738;28;20056;-59
2022/07/18 06:15:12;;;;;;;6.93;5.70;;;15.90;99.90;;;;;;5051581;28;20056;-60
2022/07/18 06:17:39;;;;;;;9.57;5.55;;;16.00;99.90;;;;;;5051435;28;20482;-60
2022/07/18 06:20:07;;;;;;;10.13;7.07;;;16.10;99.90;;;;;;5050550;28;20049;-60
2022/07/18 06:22:35;;;;;;;13.10;5.28;;;16.20;99.90;;;;;;5051316;28;20076;-60
2022/07/18 06:25:03;;;;;;;7.50;5.13;;;16.30;99.90;;;;;;5051418;28;20056;-59
2022/07/18 06:27:30;;;;;;;8.50;5.15;;;16.40;99.90;;;;;;5051562;28;20405;-60
2022/07/18 06:29:58;;;;;;;7.25;4.88;;;16.50;99.90;;;;;;5050183;28;20397;-59
2022/07/18 06:32:25;;;;;;;7.30;4.68;;;16.60;99.90;;;;;;5051328;28;20068;-60
2022/07/18 06:34:52;;;;;;;7.90;4.90;;;16.70;99.90;;;;;;5051259;28;20052;-60
2022/07/18 06:37:18;;;;;;;8.90;5.25;;;16.80;99.90;;;;;;5050836;28;20382;-59
2022/07/18 06:39:45;;;;;;;10.38;4.80;;;16.90;99.90;;;;;;5050439;28;20116;-60
2022/07/18 06:42:12;;;;;;;8.30;4.93;;;17.00;99.90;;;;;;5050873;28;20056;-60
2022/07/18 06:44:41;;;;;;;7.05;4.93;;;17.10;99.90;;;;;;5049823;28;20045;-60
2022/07/18 06:47:07;;;;;;;4.38;3.95;;;17.30;99.90;;;;;;5051152;28;20386;-60
2022/07/18 06:49:34;;;;;;;8.15;5.10;;;17.50;99.90;;;;;;5050456;28;20045;-60
2022/07/18 06:52:01;;;;;;;7.88;4.78;;;17.60;99.90;;;;;;5050793;28;20037;-60
2022/07/18 06:54:30;;;;;;;7.50;4.85;;;17.80;99.90;;;;;;5051247;28;20045;-60
2022/07/18 06:56:59;;;;;;;5.97;4.95;;;18.00;99.90;;;;;;5050414;28;20413;-60
2022/07/18 06:59:25;;;;;;;8.00;4.65;;;18.10;99.90;;;;;;5051078;28;20382;-63
2022/07/18 07:01:52;;;;;;;6.82;4.93;;;18.20;99.90;;;;;;5050589;28;20490;-60
2022/07/18 07:04:19;;;;;;;6.47;5.20;;;18.30;99.90;;;;;;5050565;28;20047;-60
2022/07/18 07:06:46;;;;;;;8.32;5.40;;;18.50;99.90;;;;;;5050483;28;20048;-60
2022/07/18 07:09:13;;;;;;;6.43;5.05;;;18.50;99.90;;;;;;5050985;28;20099;-60
2022/07/18 07:11:40;;;;;;;;;;;18.60;99.90;;;;;;5050945;28;20049;-60
2022/07/18 07:14:06;;;;;;;7.03;4.80;;;18.80;99.90;;;;;;5050354;28;19920;-60
2022/07/18 07:16:33;;;;;;;8.00;4.80;;;18.90;99.90;;;;;;5050807;28;20048;-60
2022/07/18 07:19:00;;;;;;;5.50;4.57;;;19.00;99.90;;;;;;5050772;28;20045;-60
2022/07/18 07:21:27;;;;;;;5.47;4.68;;;19.20;99.90;;;;;;5049523;28;20122;-60
2022/07/18 07:23:54;;;;;;;8.45;5.30;;;19.30;99.90;;;;;;5050794;28;20041;-60
2022/07/18 07:26:20;;;;;;;5.45;4.18;;;19.40;99.90;;;;;;5050808;28;20052;-60
2022/07/18 07:28:47;;;;;;;6.38;4.82;;;19.50;99.90;;;;;;5050529;28;20112;-60
2022/07/18 07:31:14;;;;;;;6.13;4.80;;;19.70;99.90;;;;;;5050218;28;20041;-60
2022/07/18 07:33:44;;;;;;;6.85;4.28;;;19.80;99.90;;;;;;5050572;28;20040;-60
2022/07/18 07:36:11;;;;;;;5.90;4.35;;;19.90;99.90;;;;;;5050633;28;20060;-60
2022/07/18 07:38:38;;;;;;;5.00;4.25;;;20.00;99.90;;;;;;5049925;28;20048;-60
2022/07/18 07:41:04;;;;;;;6.13;4.50;;;20.20;99.90;;;;;;5042086;28;20060;-60
2022/07/18 07:43:31;;;;;;;5.22;4.32;;;20.30;99.90;;;;;;5050303;28;20033;-60
2022/07/18 07:45:58;;;;;;;8.95;4.50;;;20.40;99.90;;;;;;5050097;28;20374;-60
2022/07/18 07:48:25;;;;;;;8.98;4.97;;;20.40;99.90;;;;;;5050318;28;20049;-60
2022/07/18 07:50:51;;;;;;;6.25;3.97;;;20.60;99.90;;;;;;5053432;28;20041;-60
2022/07/18 07:53:18;;;;;;;7.00;4.47;;;20.70;99.90;;;;;;5053623;28;20056;-60
2022/07/18 07:55:45;;;;;;;5.82;4.22;;;20.90;99.90;;;;;;5054021;28;20045;-60
2022/07/18 07:58:12;;;;;;;4.95;3.85;;;21.00;99.90;;;;;;5054026;28;20053;-60
2022/07/18 08:00:39;;;;;;;5.88;4.22;;;21.10;99.90;;;;;;5054282;28;20045;-60
2022/07/18 08:03:07;;;;;;;6.00;4.57;;;21.10;99.90;;;;;;5053243;28;20485;-60
2022/07/18 08:05:43;;;;;;;5.22;4.45;;;21.20;99.90;;;;;;5053592;28;20045;-60
2022/07/18 08:08:10;;;;;;;5.40;4.63;;;21.30;99.90;;;;;;5034060;28;20048;-60
2022/07/18 08:10:36;;;;;;;7.70;5.32;;;21.30;99.90;;;;;;5033653;28;20049;-60
2022/07/18 08:13:11;;;;;;;8.38;4.25;;;21.40;99.90;;;;;;5052388;28;20128;-60
2022/07/18 08:15:38;;;;;;;9.05;4.95;;;21.50;99.90;;;;;;5053460;28;20052;-60
2022/07/18 08:18:05;;;;;;;9.70;5.25;;;21.60;99.90;;;;;;5053584;28;20061;-59
2022/07/18 08:20:33;;;;;;;10.30;5.70;;;21.80;99.90;;;;;;5052717;28;20049;-60
2022/07/18 08:23:10;;;;;;;7.78;4.95;;;21.90;99.90;;;;;;5053490;28;20075;-60
2022/07/18 08:25:43;;;;;;;6.05;5.03;;;21.90;99.90;;;;;;5052308;28;20520;-60
2022/07/18 08:28:10;;;;;;;8.13;5.07;;;21.90;99.90;;;;;;5053047;28;20041;-60
2022/07/18 08:30:38;;;;;;;8.23;4.55;;;22.00;99.90;;;;;;5053014;28;20049;-60
2022/07/18 08:33:06;;;;;;;6.57;4.32;;;22.20;99.90;;;;;;5053403;28;20045;-60
2022/07/18 08:35:33;;;;;;;5.35;3.55;;;22.40;99.90;;;;;;5052650;28;20056;-60
2022/07/18 08:38:01;;;;;;;4.15;3.75;;;22.40;99.90;;;;;;5053288;28;20048;-60
2022/07/18 08:40:28;;;;;;;4.22;3.83;;;22.60;99.90;;;;;;5052844;28;20040;-60
2022/07/18 08:42:56;;;;;;;9.10;3.95;;;22.60;99.90;;;;;;5053180;28;20064;-60
2022/07/18 08:45:44;;;;;;;8.45;4.03;;;22.60;99.90;;;;;;5050165;28;20095;-60
2022/07/18 08:48:17;;;;;;;7.45;4.00;;;22.80;99.90;;;;;;5052898;28;20099;-60
2022/07/18 08:50:46;;;;;;;4.72;4.05;;;22.80;99.90;;;;;;5052693;28;20045;-60
2022/07/18 08:53:14;;;;;;;4.97;3.78;;;22.80;99.90;;;;;;5053062;28;20045;-60
2022/07/18 08:55:41;;;;;;;4.63;3.50;;;22.90;99.90;;;;;;5053008;28;20401;-60
2022/07/18 08:58:09;;;;;;;;;;;23.00;99.90;;;;;;5053329;28;20083;-60
2022/07/18 09:00:59;;;;;;;7.00;3.95;;;23.20;99.90;;;;;;5051031;28;19924;-60
2022/07/18 09:03:26;;;;;;;6.72;4.10;;;23.40;99.90;;;;;;5052290;28;20037;-61
2022/07/18 09:06:13;;;;;;;4.45;4.05;;;23.40;99.90;;;;;;5052772;28;20067;-59
2022/07/18 09:09:00;;;;;;;6.00;3.70;;;23.50;99.90;;;;;;5052422;28;20037;-60
2022/07/18 09:11:27;;;;;;;7.22;4.07;;;23.50;99.90;;;;;;5047421;28;20052;-60
2022/07/18 09:14:29;;;;;;;5.90;3.85;;;23.50;99.90;;;;;;5032656;28;20495;-60
2022/07/18 09:17:04;;;;;;;3.92;3.53;;;23.70;99.90;;;;;;5032765;28;20057;-60
2022/07/18 09:19:30;;;;;;;5.57;3.85;;;23.60;99.90;;;;;;5047358;28;20060;-60
2022/07/18 09:22:21;;;;;;;4.47;3.80;;;23.80;99.90;;;;;;5052079;28;20041;-60
2022/07/18 09:25:11;;;;;;;7.47;3.88;;;23.90;99.90;;;;;;5052274;28;20048;-60
2022/07/18 09:27:44;;;;;;;5.30;3.58;;;24.00;99.90;;;;;;5051766;28;20052;-60
2022/07/18 09:30:17;;;;;;;4.35;3.78;;;24.20;99.90;;;;;;5044696;28;20071;-60
2022/07/18 09:32:48;;;;;;;5.22;3.95;;;24.20;99.90;;;;;;5050918;28;20041;-60
2022/07/18 09:35:18;;;;;;;4.25;3.63;;;24.30;99.90;;;;;;5051715;28;20045;-61
2022/07/18 09:37:57;;;;;;;5.00;4.10;;;24.50;99.90;;;;;;5051914;28;20099;-60
2022/07/18 09:40:26;;;;;;;5.80;3.97;;;24.70;99.90;;;;;;5051795;28;20412;-60
2022/07/18 09:42:56;;;;;;;4.50;3.60;;;24.70;99.90;;;;;;5051614;28;20041;-60
2022/07/18 09:45:26;;;;;;;4.32;3.40;;;24.70;99.90;;;;;;5052150;28;20103;-60
2022/07/18 09:48:06;;;;;;;3.75;3.40;;;24.80;99.80;;;;;;5051791;28;20041;-60
2022/07/18 09:50:34;;;;;;;6.00;3.08;;;24.90;99.90;;;;;;5051541;28;20045;-60
2022/07/18 09:53:09;;;;;;;5.43;3.80;;;24.90;99.60;;;;;;5051280;28;20033;-60
2022/07/18 09:56:01;;;;;;;5.05;3.47;;;25.00;98.90;;;;;;5051900;28;20384;-60
2022/07/18 09:58:30;;;;;;;4.30;3.45;;;25.10;99.90;;;;;;5051746;28;20417;-60
2022/07/18 10:00:59;;;;;;;4.57;3.63;;;25.20;99.90;;;;;;5051441;28;20541;-60
2022/07/18 10:03:27;;;;;;;4.22;3.33;;;25.10;99.90;;;;;;5051038;28;20045;-61
2022/07/18 10:05:55;;;;;;;4.70;3.80;;;25.20;99.80;;;;;;5051800;28;20408;-60
2022/07/18 10:08:25;;;;;;;3.90;3.50;;;25.20;99.90;;;;;;5051844;28;20401;-60
2022/07/18 10:10:53;;;;;;;6.07;3.63;;;25.20;99.90;;;;;;5048038;28;20041;-60
2022/07/18 10:13:22;;;;;;;4.38;3.30;;;25.40;99.90;;;;;;5050854;28;20045;-61
2022/07/18 10:15:50;;;;;;;4.00;3.30;;;25.30;99.90;;;;;;5042272;28;20472;-60
2022/07/18 10:18:19;;;;;;;5.20;3.42;;;25.50;99.90;;;;;;5050927;28;20436;-60
2022/07/18 10:21:11;;;;;;;5.68;3.08;;;25.60;99.90;;;;;;5043049;28;20041;-60
2022/07/18 10:23:43;;;;;;;4.95;2.85;;;25.60;99.60;;;;;;5051261;28;20037;-60
2022/07/18 10:26:24;;;;;;;5.93;3.38;;;25.60;99.90;;;;;;5050223;28;20052;-61
2022/07/18 10:28:59;;;;;;;5.20;2.80;;;25.80;99.90;;;;;;5051253;28;20052;-60
2022/07/18 10:31:27;;;;;;;4.22;3.05;;;26.00;99.90;;;;;;5050823;28;20064;-60
2022/07/18 10:34:10;;;;;;;4.90;3.17;;;26.10;99.90;;;;;;5050879;28;20080;-60
2022/07/18 10:36:50;;;;;;;2.88;2.53;;;26.10;99.50;;;;;;5051167;28;20045;-60
2022/07/18 10:39:23;;;;;;;6.32;3.08;;;26.00;97.10;;;;;;5050508;28;20049;-60
2022/07/18 10:41:54;;;;;;;3.88;2.88;;;26.00;97.00;;;;;;5050882;28;20049;-60
2022/07/18 10:44:30;;;;;;;5.90;2.63;;;26.10;96.20;;;;;;5051436;28;20043;-60
2022/07/18 10:47:02;;;;;;;2.85;2.22;;;26.10;98.50;;;;;;5050840;28;20045;-60
2022/07/18 10:49:47;;;;;;;2.55;2.33;;;26.10;97.10;;;;;;5050910;28;20045;-60
2022/07/18 10:52:38;;;;;;;4.85;2.35;;;26.40;94.40;;;;;;5049505;28;20490;-60
2022/07/18 10:55:18;;;;;;;2.97;2.15;;;26.40;96.20;;;;;;5042107;28;20513;-60
2022/07/18 10:57:48;;;;;;;3.20;2.30;;;26.50;97.40;;;;;;5050858;28;20044;-59
2022/07/18 11:00:22;;;;;;;3.83;2.53;;;26.50;95.00;;;;;;5050597;28;20037;-59
2022/07/18 11:03:05;;;;;;;4.35;2.53;;;26.50;94.70;;;;;;5050568;28;20029;-60
2022/07/18 11:05:34;;;;;;;4.20;2.60;;;26.50;94.70;;;;;;5050869;28;20055;-61
2022/07/18 11:08:01;;;;;;;5.25;3.05;;;26.60;95.90;;;;;;5051030;28;20037;-60
2022/07/18 11:10:51;;;;;;;5.78;2.72;;;26.70;97.00;;;;;;5050497;28;20047;-60
2022/07/18 11:13:32;;;;;;;5.80;2.75;;;26.80;96.90;;;;;;5050379;28;20056;-61
2022/07/18 11:16:22;;;;;;;4.03;2.55;;;26.70;97.30;;;;;;5050871;28;20051;-61
2022/07/18 11:18:50;;;;;;;3.83;2.92;;;26.70;96.50;;;;;;5050911;28;20079;-60
2022/07/18 11:21:21;;;;;;;4.20;2.88;;;26.80;97.90;;;;;;5050486;28;20045;-60
2022/07/18 11:23:50;;;;;;;4.78;3.08;;;26.80;96.80;;;;;;5050090;28;20045;-61
2022/07/18 11:26:22;;;;;;;3.72;2.58;;;26.70;96.60;;;;;;5054819;28;20045;-60
2022/07/18 11:28:58;;;;;;;4.28;2.75;;;26.80;96.00;;;;;;5054621;28;20049;-61
2022/07/18 11:31:27;;;;;;;4.60;2.80;;;26.90;96.10;;;;;;5052461;28;20041;-60
2022/07/18 11:33:54;;;;;;;3.63;2.58;;;27.10;96.70;;;;;;5054325;28;20064;-60
2022/07/18 11:36:27;;;;;;;4.38;2.17;;;27.20;96.00;;;;;;5054551;28;20074;-60
2022/07/18 11:43:00;;;;;;;6.75;2.15;;;27.20;96.10;;;;;;5063595;28;20040;-63
2022/07/18 11:45:27;;;;;;;4.65;2.15;;;27.20;93.80;;;;;;5069183;28;20047;-63
2022/07/18 11:47:54;;;;;;;2.97;2.67;;;27.20;95.10;;;;;;5074274;28;20056;-63
2022/07/18 11:50:36;;;;;;;4.45;2.10;;;27.10;94.30;;;;;;5068021;28;20040;-63
2022/07/18 11:53:02;;;;;;;2.25;2.03;;;27.10;92.30;;;;;;5074191;28;20500;-64
2022/07/18 11:55:34;;;;;;;2.65;2.22;;;27.30;93.70;;;;;;5074108;28;20040;-64
2022/07/18 11:58:11;;;;;;;2.53;1.95;;;27.50;93.20;;;;;;5067136;28;20090;-63
2022/07/18 12:00:39;;;;;;;3.80;2.00;;;27.50;91.90;;;;;;5073603;28;20070;-63
2022/07/18 12:03:20;;;;;;;2.15;1.83;;;27.40;91.50;;;;;;5073989;28;20412;-63
2022/07/18 12:05:52;;;;;;;4.05;1.88;;;27.40;91.50;;;;;;5071283;28;20033;-63
2022/07/18 12:08:24;;;;;;;6.65;1.73;;;27.40;93.00;;;;;;5073804;28;20036;-63
2022/07/18 12:11:12;;;;;;;4.13;2.10;;;27.40;88.00;;;;;;5073534;28;20045;-64
2022/07/18 12:13:43;;;;;;;2.50;1.90;;;27.50;91.10;;;;;;5073781;28;20048;-63
2022/07/18 12:16:45;;;;;;;2.97;1.95;;;27.40;90.10;;;;;;5067095;28;20468;-63
2022/07/18 12:19:15;;;;;;;3.67;1.95;;;27.40;90.30;;;;;;5066367;28;20521;-63
2022/07/18 12:21:55;;;;;;;2.10;1.70;;;27.40;90.90;;;;;;5073439;28;20045;-63
2022/07/18 12:24:32;;;;;;;5.13;1.90;;;27.40;90.80;;;;;;5073673;28;20040;-64
2022/07/18 12:27:19;;;;;;;2.10;1.77;;;27.60;90.30;;;;;;5066442;28;20045;-64
2022/07/18 12:30:19;;;;;;;2.25;2.00;;;27.70;86.60;;;;;;5073269;28;20048;-64
2022/07/18 12:32:59;;;;;;;2.03;1.83;;;27.90;88.00;;;;;;5072091;28;20051;-63
2022/07/18 12:35:32;;;;;;;2.00;1.60;;;28.00;90.30;;;;;;5067587;28;20045;-63
2022/07/18 12:38:00;;;;;;;2.05;1.50;;;28.10;87.30;;;;;;5073189;28;20405;-64
2022/07/18 12:40:52;;;;;;;2.28;1.50;;;28.10;84.80;;;;;;5072890;28;20119;-63
2022/07/18 12:43:26;;;;;;;2.13;1.80;;;28.00;86.90;;;;;;5058093;28;20054;-64
2022/07/18 12:45:54;;;;;;;2.15;1.65;;;28.10;86.00;;;;;;5073235;28;20036;-64
2022/07/18 12:48:21;;;;;;;2.90;1.75;;;28.00;84.50;;;;;;5073623;28;20086;-64
2022/07/18 12:51:08;;;;;;;2.60;1.80;;;28.00;86.50;;;;;;5072805;28;20075;-64
2022/07/18 12:53:40;;;;;;;2.35;1.70;;;27.90;80.50;;;;;;5068958;28;20045;-64
2022/07/18 12:56:07;;;;;;;2.17;1.95;;;27.90;85.10;;;;;;5035202;28;20041;-64
2022/07/18 12:58:34;;;;;;;4.55;1.50;;;28.00;83.90;;;;;;5053011;28;20052;-64
2022/07/18 13:01:01;;;;;;;2.25;1.70;;;28.10;83.00;;;;;;5055298;28;20037;-63
2022/07/18 13:03:34;;;;;;;4.22;1.80;;;28.10;84.20;;;;;;5072919;28;20043;-63
2022/07/18 13:06:01;;;;;;;1.83;1.63;;;28.20;83.30;;;;;;5072826;28;20040;-64